Time;durP1;ratioP1;P1;durP2;ratioP2;P2;SDS_P1;SDS_P2;PMS_P1;PMS_P2;Temp;Humidity;BMP_temperature;BMP_pressure;BME280_temperature;BME280_humidity;BME280_pressure;Samples;Min_cycle;Max_cycle;Signal;HPM_P1;HPM_P2
2021/12/15 00:01:14;;;;;;;;;50.50;39.75;;;;;9.63;84.23;102249.34;5081560;27;45447;-68
2021/12/15 00:03:40;;;;;;;;;42.25;36.25;;;;;9.61;83.94;102255.50;5079898;27;45267;-68
2021/12/15 00:06:12;;;;;;;;;44.50;35.50;;;;;9.58;84.24;102252.91;5082098;27;45350;-67
2021/12/15 00:08:38;;;;;;;;;50.75;38.25;;;;;9.59;84.19;102254.66;5079632;27;45305;-68
2021/12/15 00:11:04;;;;;;;;;45.75;37.25;;;;;9.59;84.07;102252.88;5078935;27;46311;-69
2021/12/15 00:13:29;;;;;;;;;46.00;35.50;;;;;9.59;84.27;102242.38;5079628;27;45268;-66
2021/12/15 00:15:55;;;;;;;;;47.00;35.25;;;;;9.59;84.09;102246.75;5078925;27;45371;-71
2021/12/15 00:18:20;;;;;;;;;44.00;35.25;;;;;9.58;83.85;102251.13;5078544;27;45270;-67
2021/12/15 00:20:46;;;;;;;;;53.75;38.00;;;;;9.55;84.17;102243.28;5077939;27;45354;-67
2021/12/15 00:23:11;;;;;;;;;50.00;38.75;;;;;9.53;84.40;102241.53;5077903;27;45399;-69
2021/12/15 00:25:40;;;;;;;;;48.50;36.50;;;;;9.50;83.70;102251.19;5078722;27;45366;-65
2021/12/15 00:28:07;;;;;;;;;47.00;37.50;;;;;9.46;84.08;102240.75;5079231;27;45279;-69
2021/12/15 00:30:33;;;;;;;;;42.50;32.50;;;;;9.41;84.26;102235.50;5078082;27;46173;-66
2021/12/15 00:32:59;;;;;;;;;50.00;37.75;;;;;9.46;84.22;102249.47;5081176;28;45393;-67
2021/12/15 00:35:25;;;;;;;;;54.75;41.50;;;;;9.45;84.60;102242.47;5079921;27;45408;-66
2021/12/15 00:37:51;;;;;;;;;47.00;38.25;;;;;9.47;84.47;102240.72;5079317;27;45516;-70
2021/12/15 00:40:19;;;;;;;;;50.25;38.50;;;;;9.48;84.46;102238.97;5077872;27;46231;-66
2021/12/15 00:42:45;;;;;;;;;48.75;38.75;;;;;9.42;84.64;102232.00;5078506;27;45409;-69
2021/12/15 00:45:12;;;;;;;;;43.00;35.00;;;;;9.46;84.35;102233.72;5078275;27;45356;-61
2021/12/15 00:47:38;;;;;;;;;42.00;36.75;;;;;9.42;84.53;102232.00;5078049;28;45332;-67
2021/12/15 00:50:08;;;;;;;;;49.00;37.25;;;;;9.44;84.75;102232.84;5076422;28;45463;-63
2021/12/15 00:52:36;;;;;;;;;52.50;39.75;;;;;9.46;84.29;102244.22;5078254;27;45382;-67
2021/12/15 00:55:05;;;;;;;;;51.00;39.75;;;;;9.48;84.31;102239.81;5078337;27;45303;-67
2021/12/15 00:57:31;;;;;;;;;50.50;39.25;;;;;9.45;84.20;102239.84;5077906;27;45487;-68
2021/12/15 00:59:57;;;;;;;;;50.25;38.00;;;;;9.44;83.97;102232.84;5077369;27;45338;-67
2021/12/15 01:02:22;;;;;;;;;48.75;33.00;;;;;9.45;84.20;102242.47;5076673;27;45422;-67
2021/12/15 01:04:48;;;;;;;;;48.75;36.75;;;;;9.46;84.52;102236.34;5077779;27;45254;-66
2021/12/15 01:07:13;;;;;;;;;48.00;36.00;;;;;9.46;84.29;102238.97;5078200;27;45342;-67
2021/12/15 01:09:45;;;;;;;;;48.50;36.50;;;;;9.49;83.74;102236.31;5077691;27;45224;-66
2021/12/15 01:12:35;;;;;;;;;44.50;35.00;;;;;9.49;83.92;102238.09;5077135;27;45275;-63
2021/12/15 01:20:30;;;;;;;;;35.75;31.75;;;;;9.50;83.67;102239.81;5081953;28;45825;-67
2021/12/15 01:23:01;;;;;;;;;46.50;36.50;;;;;9.48;83.88;102242.44;5077888;27;45314;-68
2021/12/15 01:25:45;;;;;;;;;47.25;36.00;;;;;9.47;83.72;102237.22;5077845;27;45342;-69
2021/12/15 01:28:11;;;;;;;;;45.75;35.00;;;;;9.43;83.98;102232.88;5078145;27;45432;-68
2021/12/15 01:30:44;;;;;;;;;50.25;39.50;;;;;9.45;83.95;102239.84;5077452;27;45381;-66
2021/12/15 01:33:10;;;;;;;;;48.75;38.25;;;;;9.47;83.94;102230.19;5079044;27;45491;-67
2021/12/15 01:35:38;;;;;;;;;46.25;37.25;;;;;9.50;83.70;102238.06;5082512;27;45298;-67
2021/12/15 01:38:05;;;;;;;;;49.75;38.25;;;;;9.49;83.57;102236.31;5078927;27;45223;-69
2021/12/15 01:40:36;;;;;;;;;47.25;35.00;;;;;9.50;83.75;102232.81;5077245;27;46089;-68
2021/12/15 01:43:13;;;;;;;;;46.50;36.00;;;;;9.54;83.74;102238.03;5078014;27;45336;-67
2021/12/15 01:48:23;;;;;;;;;41.75;33.50;;;;;9.56;83.66;102234.50;5078532;28;45398;-69
2021/12/15 01:50:50;;;;;;;;;46.75;36.00;;;;;9.56;83.51;102236.28;5079663;28;45345;-71
2021/12/15 01:53:17;;;;;;;;;45.00;34.00;;;;;9.57;83.90;102235.41;5079025;27;45215;-68
2021/12/15 01:55:43;;;;;;;;;47.50;37.00;;;;;9.60;83.58;102240.63;5077438;27;45673;-69
2021/12/15 01:58:08;;;;;;;;;39.75;32.00;;;;;9.59;83.35;102241.50;5076388;28;45358;-68
2021/12/15 02:00:58;;;;;;;;;45.25;35.25;;;;;9.61;83.70;102245.00;5078243;27;47160;-69
2021/12/15 02:03:24;;;;;;;;;38.75;33.25;;;;;9.57;83.48;102240.66;5080451;27;45218;-67
2021/12/15 02:05:50;;;;;;;;;48.00;34.25;;;;;9.61;83.55;102253.72;5078700;28;45312;-69
2021/12/15 02:08:17;;;;;;;;;45.00;35.50;;;;;9.62;83.23;102249.38;5077605;28;45274;-66
2021/12/15 02:10:44;;;;;;;;;46.00;37.00;;;;;9.61;83.28;102255.50;5075987;27;46438;-67
2021/12/15 02:13:13;;;;;;;;;50.50;37.50;;;;;9.61;83.52;102245.00;5078349;27;45429;-60
2021/12/15 02:15:41;;;;;;;;;47.75;34.75;;;;;9.63;83.43;102253.72;5080000;27;45300;-61
2021/12/15 02:18:11;;;;;;;;;45.25;37.75;;;;;9.62;83.25;102254.63;5079705;27;45227;-62
2021/12/15 02:20:41;;;;;;;;;44.50;36.00;;;;;9.63;83.47;102266.88;5079915;28;45666;-62
2021/12/15 02:23:10;;;;;;;;;43.00;33.25;;;;;9.60;83.18;102257.25;5080584;27;45381;-61
2021/12/15 02:25:36;;;;;;;;;47.50;36.00;;;;;9.56;83.02;102262.56;5080099;27;45298;-64
2021/12/15 02:28:05;;;;;;;;;47.75;37.25;;;;;9.56;83.47;102265.19;5078964;28;45648;-66
2021/12/15 02:33:25;;;;;;;;;46.25;37.75;;;;;9.54;83.60;102265.19;5079749;27;45339;-61
2021/12/15 02:38:41;;;;;;;;;38.50;32.00;;;;;9.53;83.17;102258.19;5080058;28;45355;-66
2021/12/15 02:41:19;;;;;;;;;36.00;32.50;;;;;9.49;83.36;102252.06;5078515;27;47353;-63
2021/12/15 02:43:51;;;;;;;;;46.75;32.75;;;;;9.56;83.01;102259.94;5079939;27;45228;-64
2021/12/15 02:46:17;;;;;;;;;47.50;36.50;;;;;9.55;83.30;102266.94;5080181;27;45381;-65
2021/12/15 02:48:42;;;;;;;;;45.50;35.00;;;;;9.55;83.33;102261.66;5079705;27;45625;-61
2021/12/15 02:51:09;;;;;;;;;36.75;31.75;;;;;9.53;83.08;102270.44;5080702;28;45332;-70
2021/12/15 02:53:34;;;;;;;;;45.00;37.50;;;;;9.52;82.96;102264.31;5082187;28;45426;-67
2021/12/15 02:55:59;;;;;;;;;45.25;35.75;;;;;9.52;83.19;102252.94;5079573;27;45261;-68
2021/12/15 02:58:32;;;;;;;;;42.25;33.50;;;;;9.55;83.26;102260.81;5079824;27;45532;-68
2021/12/15 03:01:03;;;;;;;;;43.50;34.25;;;;;9.55;83.26;102266.06;5079335;27;46512;-70
2021/12/15 03:06:20;;;;;;;;;44.00;36.25;;;;;9.54;82.94;102256.41;5080210;28;45427;-66
2021/12/15 03:09:09;;;;;;;;;39.75;34.50;;;;;9.51;83.45;102257.34;5079757;27;45408;-71
2021/12/15 03:17:19;;;;;;;;;44.50;34.25;;;;;9.53;82.96;102254.66;5017373;28;45485;-64
2021/12/15 03:19:44;;;;;;;;;45.50;35.25;;;;;9.52;82.97;102252.94;5066274;27;45564;-65
2021/12/15 03:22:10;;;;;;;;;45.75;36.50;;;;;9.50;83.05;102258.22;5079661;27;45329;-67
2021/12/15 03:24:35;;;;;;;;;47.25;34.75;;;;;9.48;83.34;102255.59;5078425;27;45311;-66
2021/12/15 03:27:05;;;;;;;;;46.75;34.50;;;;;9.45;83.47;102252.13;5079397;27;45345;-64
2021/12/15 03:37:57;;;;;;;;;43.75;35.50;;;;;9.42;83.00;102260.88;5053033;27;45321;-67
2021/12/15 03:40:40;;;;;;;;;43.25;35.00;;;;;9.40;83.38;102262.66;5083515;27;45431;-66
2021/12/15 03:43:14;;;;;;;;;45.00;33.25;;;;;9.33;82.95;102258.34;5081634;27;46238;-61
2021/12/15 03:45:48;;;;;;;;;45.00;33.50;;;;;9.39;83.25;102268.78;5077525;28;45398;-65
2021/12/15 03:48:18;;;;;;;;;50.00;36.00;;;;;9.39;83.14;102276.69;5079268;27;45468;-70
2021/12/15 03:50:44;;;;;;;;;33.75;30.50;;;;;9.36;83.33;102268.81;5094884;27;45363;-65
2021/12/15 03:53:13;;;;;;;;;42.50;34.25;;;;;9.30;82.91;102261.88;5079063;27;46270;-70
2021/12/15 03:55:40;;;;;;;;;40.75;34.00;;;;;9.32;82.97;102274.97;5078938;27;45456;-63
2021/12/15 03:58:11;;;;;;;;;41.75;33.25;;;;;9.30;83.07;102268.88;5079232;27;45392;-67
2021/12/15 04:00:50;;;;;;;;;44.50;33.50;;;;;9.26;83.28;102268.03;5078564;27;45516;-65
2021/12/15 04:03:26;;;;;;;;;36.25;29.75;;;;;9.28;83.12;102271.53;5078840;27;47006;-66
2021/12/15 04:05:53;;;;;;;;;48.75;38.00;;;;;9.26;83.40;102268.03;5082492;27;45438;-66
2021/12/15 04:08:19;;;;;;;;;45.00;35.75;;;;;9.27;83.60;102269.78;5079131;27;45205;-63
2021/12/15 04:10:45;;;;;;;;;39.25;31.00;;;;;9.30;83.46;102275.00;5082519;27;45600;-65
2021/12/15 04:13:13;;;;;;;;;45.50;36.00;;;;;9.32;83.27;102264.47;5078994;27;45345;-64
2021/12/15 04:16:05;;;;;;;;;40.00;33.00;;;;;9.34;83.22;102267.97;5078418;27;45569;-61
2021/12/15 04:18:31;;;;;;;;;40.75;33.25;;;;;9.28;83.02;102258.41;5079376;27;45256;-63
2021/12/15 04:20:57;;;;;;;;;37.00;30.75;;;;;9.34;83.37;102260.97;5079893;27;45616;-60
2021/12/15 04:23:23;;;;;;;;;43.50;33.25;;;;;9.34;82.90;102263.59;5078995;28;46023;-60
2021/12/15 04:25:58;;;;;;;;;36.25;31.75;;;;;9.34;82.91;102262.72;5080095;28;45358;-60
2021/12/15 04:28:28;;;;;;;;;38.25;33.50;;;;;9.33;82.84;102264.47;5081035;27;45449;-61
2021/12/15 04:30:57;;;;;;;;;36.50;31.50;;;;;9.35;82.70;102262.72;5080124;27;45672;-64
2021/12/15 04:33:23;;;;;;;;;33.75;30.25;;;;;9.37;83.11;102260.06;5078102;28;45365;-63
2021/12/15 04:35:52;;;;;;;;;43.25;32.25;;;;;9.38;82.78;102260.94;5076200;27;45407;-62
2021/12/15 04:38:18;;;;;;;;;37.75;32.50;;;;;9.32;82.49;102246.97;5077991;27;45397;-68
2021/12/15 04:40:43;;;;;;;;;39.00;30.25;;;;;9.38;82.22;102258.31;5078539;27;45199;-65
2021/12/15 04:43:10;;;;;;;;;37.50;31.00;;;;;9.39;82.41;102260.91;5078042;27;47162;-68
2021/12/15 04:45:36;;;;;;;;;35.00;29.25;;;;;9.37;82.46;102256.56;5078209;27;45221;-67
2021/12/15 04:48:02;;;;;;;;;33.50;28.50;;;;;9.40;82.27;102267.91;5078912;27;45287;-68
2021/12/15 04:50:31;;;;;;;;;28.50;28.50;;;;;9.42;82.08;102262.66;5078015;27;45313;-68
2021/12/15 04:53:00;;;;;;;;;35.50;24.75;;;;;9.44;82.26;102274.88;5078023;27;46195;-68
2021/12/15 04:55:28;;;;;;;;;33.00;29.50;;;;;9.47;81.95;102274.00;5079028;27;45211;-67
2021/12/15 04:57:55;;;;;;;;;32.25;30.50;;;;;9.47;81.85;102277.47;5077845;27;45409;-70
2021/12/15 05:00:26;;;;;;;;;35.25;30.00;;;;;9.47;81.68;102276.63;5077279;28;45327;-67
2021/12/15 05:02:52;;;;;;;;;32.50;27.25;;;;;9.46;81.80;102280.13;5078419;27;45489;-66
2021/12/15 05:05:19;;;;;;;;;31.50;28.50;;;;;9.42;81.80;102271.41;5078185;27;45287;-67
2021/12/15 05:07:44;;;;;;;;;36.00;31.25;;;;;9.45;81.42;102284.50;5078468;27;45379;-68
2021/12/15 05:10:11;;;;;;;;;33.75;28.75;;;;;9.43;81.65;102288.03;5081006;27;45585;-68
2021/12/15 05:12:37;;;;;;;;;41.25;32.00;;;;;9.36;81.71;102279.31;5078712;27;45915;-68
2021/12/15 05:15:06;;;;;;;;;39.50;32.25;;;;;9.43;81.64;102286.28;5077860;27;45251;-69
2021/12/15 05:17:32;;;;;;;;;26.00;21.25;;;;;9.40;82.02;102286.28;5077349;27;45427;-69
2021/12/15 05:20:02;;;;;;;;;34.25;30.25;;;;;9.41;81.69;102288.03;5077848;27;45264;-62
2021/12/15 05:22:27;;;;;;;;;32.50;27.75;;;;;9.40;81.41;102286.28;5076696;27;46214;-66
2021/12/15 05:24:53;;;;;;;;;34.25;30.25;;;;;9.42;81.75;102292.41;5076687;27;45357;-66
2021/12/15 05:27:18;;;;;;;;;35.25;29.50;;;;;9.36;81.68;102281.94;5077512;27;45258;-67
2021/12/15 05:29:46;;;;;;;;;30.75;28.25;;;;;9.41;81.40;102295.06;5078055;27;45469;-67
2021/12/15 05:32:16;;;;;;;;;32.75;25.25;;;;;9.42;81.89;102295.03;5076937;27;45274;-69
2021/12/15 05:34:41;;;;;;;;;37.75;31.25;;;;;9.44;81.71;102297.66;5076851;28;45456;-64
2021/12/15 05:37:07;;;;;;;;;35.00;29.50;;;;;9.45;81.81;102299.41;5077205;28;45434;-67
2021/12/15 05:39:33;;;;;;;;;35.00;31.00;;;;;9.42;81.23;102304.69;5077510;27;45593;-69
2021/12/15 05:41:59;;;;;;;;;37.75;31.75;;;;;9.37;81.20;102298.59;5077226;27;45465;-68
2021/12/15 05:44:25;;;;;;;;;31.25;27.50;;;;;9.41;81.49;102309.06;5077461;27;45262;-67
2021/12/15 05:46:54;;;;;;;;;30.00;27.25;;;;;9.42;81.55;102310.78;5076768;28;45266;-70
2021/12/15 05:49:20;;;;;;;;;31.50;29.00;;;;;9.44;81.29;102316.06;5077242;27;45491;-68
2021/12/15 05:51:46;;;;;;;;;29.50;27.50;;;;;9.40;81.34;102307.31;5077260;27;46838;-68
2021/12/15 05:54:12;;;;;;;;;30.25;26.25;;;;;9.44;81.32;102311.66;5075071;28;45606;-59
2021/12/15 05:56:37;;;;;;;;;31.00;27.50;;;;;9.45;81.38;102313.41;5077494;28;45401;-66
2021/12/15 05:59:04;;;;;;;;;26.25;24.50;;;;;9.47;81.27;102313.41;5076702;27;45398;-64
2021/12/15 06:01:30;;;;;;;;;33.00;28.00;;;;;9.46;81.39;102317.78;5077109;27;45330;-65
2021/12/15 06:03:56;;;;;;;;;29.25;27.75;;;;;9.46;81.44;102317.78;5076166;27;45291;-62
2021/12/15 06:06:22;;;;;;;;;33.50;25.75;;;;;9.45;81.08;102320.41;5076554;27;45243;-64
2021/12/15 06:08:48;;;;;;;;;32.75;27.75;;;;;9.47;81.06;102318.66;5077262;27;45449;-64
2021/12/15 06:11:13;;;;;;;;;27.50;25.25;;;;;9.40;81.33;102309.94;5076121;28;45557;-69
2021/12/15 06:13:39;;;;;;;;;27.50;26.25;;;;;9.46;81.08;102330.03;5074962;27;45434;-65
2021/12/15 06:16:05;;;;;;;;;34.50;29.75;;;;;9.44;81.17;102326.56;5075892;27;45385;-65
2021/12/15 06:18:31;;;;;;;;;31.25;27.00;;;;;9.40;81.02;102330.94;5077241;27;45469;-63
2021/12/15 06:20:57;;;;;;;;;31.25;27.25;;;;;9.43;81.56;102337.94;5079348;27;46352;-66
2021/12/15 06:23:23;;;;;;;;;33.50;30.00;;;;;9.40;81.40;102328.31;5079219;28;45463;-66
2021/12/15 06:25:55;;;;;;;;;34.25;28.00;;;;;9.47;81.47;102339.66;5076868;27;45286;-60
2021/12/15 06:28:24;;;;;;;;;35.50;30.00;;;;;9.49;81.30;102337.91;5076512;27;45388;-64
2021/12/15 06:30:50;;;;;;;;;48.75;35.50;;;;;9.48;81.35;102339.63;5076109;27;45832;-65
2021/12/15 06:33:16;;;;;;;;;40.00;30.50;;;;;9.47;81.87;102343.16;5076087;27;45338;-68
2021/12/15 06:35:51;;;;;;;;;28.75;26.00;;;;;9.50;80.73;102340.50;5076947;27;45263;-67
2021/12/15 06:38:17;;;;;;;;;34.25;28.50;;;;;9.52;81.28;102348.38;5077550;27;45271;-62
2021/12/15 06:40:42;;;;;;;;;33.25;29.50;;;;;9.57;81.42;102340.50;5076839;27;45190;-63
2021/12/15 06:43:11;;;;;;;;;28.50;25.00;;;;;9.59;81.49;102347.47;5080210;27;45287;-68
2021/12/15 06:45:49;;;;;;;;;32.00;25.75;;;;;9.60;80.38;102357.09;5075672;27;45877;-68
2021/12/15 06:59:10;;;;;;;;;34.50;29.25;;;;;9.61;80.54;102364.09;5076573;28;45401;-66
2021/12/15 07:01:35;;;;;;;;;27.00;23.75;;;;;9.62;80.59;102367.59;5079703;27;47328;-70
2021/12/15 07:04:01;;;;;;;;;30.50;27.00;;;;;9.63;80.68;102359.69;5079954;27;45469;-68
2021/12/15 07:06:27;;;;;;;;;34.50;26.50;;;;;9.61;80.66;102358.81;5079736;27;45374;-68
2021/12/15 07:08:52;;;;;;;;;32.25;27.50;;;;;9.67;80.68;102359.66;5078882;27;45309;-69
2021/12/15 07:11:19;;;;;;;;;31.50;28.25;;;;;9.65;80.49;102364.94;5078261;27;47022;-70
2021/12/15 07:13:44;;;;;;;;;36.25;28.75;;;;;9.67;80.27;102370.16;5079367;28;45363;-71
2021/12/15 07:16:10;;;;;;;;;33.50;28.00;;;;;9.63;80.07;102371.97;5078353;28;45428;-68
2021/12/15 07:18:53;;;;;;;;;27.50;24.50;;;;;9.65;80.67;102373.69;5080566;27;45239;-69
2021/12/15 07:21:25;;;;;;;;;37.75;30.00;;;;;9.64;80.72;102379.81;5078010;27;46248;-68
2021/12/15 07:23:53;;;;;;;;;28.50;24.00;;;;;9.67;80.25;102384.19;5078760;27;45535;-66
2021/12/15 07:26:20;;;;;;;;;28.25;25.75;;;;;9.68;80.43;102379.78;5077812;28;45828;-69
2021/12/15 07:28:45;;;;;;;;;31.00;29.00;;;;;9.70;80.74;102386.81;5081851;28;45310;-67
2021/12/15 07:31:12;;;;;;;;;28.75;27.75;;;;;9.72;80.21;102392.91;5083145;28;45564;-64
2021/12/15 07:33:37;;;;;;;;;29.75;27.50;;;;;9.72;80.00;102395.53;5079276;27;45218;-66
2021/12/15 07:36:04;;;;;;;;;31.00;27.00;;;;;9.71;80.32;102393.81;5079693;28;45456;-69
2021/12/15 07:38:30;;;;;;;;;26.75;25.25;;;;;9.73;80.41;102388.53;5078764;27;45276;-65
2021/12/15 07:40:55;;;;;;;;;25.50;24.75;;;;;9.67;79.76;102386.81;5080145;27;46522;-65
2021/12/15 07:43:24;;;;;;;;;26.75;25.75;;;;;9.72;80.38;102399.91;5079503;27;45502;-66
2021/12/15 07:46:03;;;;;;;;;29.00;25.75;;;;;9.74;80.03;102401.66;5081061;27;45466;-68
2021/12/15 07:48:34;;;;;;;;;28.00;23.75;;;;;9.75;80.11;102410.41;5078930;27;45499;-62
2021/12/15 07:51:04;;;;;;;;;27.50;23.75;;;;;9.73;79.67;102406.91;5078212;27;45169;-68
2021/12/15 07:53:30;;;;;;;;;26.50;23.25;;;;;9.69;80.05;102394.69;5077906;27;45420;-66
2021/12/15 07:55:56;;;;;;;;;28.25;24.75;;;;;9.76;80.62;102415.66;5078667;27;45367;-61
2021/12/15 07:58:23;;;;;;;;;30.50;25.50;;;;;9.78;80.71;102413.00;5080802;27;45565;-65
2021/12/15 08:00:51;;;;;;;;;32.75;27.00;;;;;9.82;80.30;102416.50;5078469;27;45990;-66
2021/12/15 08:03:17;;;;;;;;;31.25;27.50;;;;;9.86;80.50;102413.81;5078994;27;45317;-67
2021/12/15 08:05:46;;;;;;;;;36.25;30.25;;;;;9.83;81.31;102405.09;5077992;27;45531;-64
2021/12/15 08:08:11;;;;;;;;;33.75;30.00;;;;;9.88;80.65;102419.09;5078076;27;45432;-64
2021/12/15 08:10:38;;;;;;;;;42.50;34.50;;;;;9.91;81.00;102413.81;5077795;27;47425;-66
2021/12/15 08:13:04;;;;;;;;;28.50;24.50;;;;;9.91;80.26;102411.16;5079156;27;45456;-65
2021/12/15 08:15:30;;;;;;;;;27.00;23.50;;;;;9.95;80.56;102418.16;5081189;27;45264;-71
2021/12/15 08:17:55;;;;;;;;;19.50;18.25;;;;;9.94;80.55;102414.63;5072702;28;45600;-65
2021/12/15 08:20:25;;;;;;;;;18.75;16.50;;;;;10.00;80.63;102425.97;5057106;28;45434;-61
2021/12/15 08:22:50;;;;;;;;;27.00;21.25;;;;;10.00;81.17;102426.88;5077370;27;45299;-64
2021/12/15 08:25:17;;;;;;;;;22.75;20.50;;;;;10.02;80.90;102430.34;5065998;28;45563;-60
2021/12/15 08:27:44;;;;;;;;;25.00;20.75;;;;;10.01;80.56;102420.72;5057177;28;45398;-65
2021/12/15 08:30:18;;;;;;;;;24.25;19.25;;;;;10.04;80.42;102420.69;5074336;28;46137;-65
2021/12/15 08:32:44;;;;;;;;;27.00;23.50;;;;;10.05;80.70;102422.44;5076732;27;45410;-76
2021/12/15 08:35:10;;;;;;;;;25.50;21.00;;;;;10.09;80.52;102429.41;5074552;28;45449;-71
2021/12/15 08:37:35;;;;;;;;;26.50;23.25;;;;;10.12;80.74;102428.53;5080151;27;45441;-65
2021/12/15 08:40:00;;;;;;;;;21.50;17.25;;;;;10.10;80.11;102417.16;5078750;27;45232;-66
2021/12/15 08:42:26;;;;;;;;;26.00;25.75;;;;;10.17;80.23;102425.84;5070793;27;45430;-71
2021/12/15 08:44:51;;;;;;;;;24.50;20.50;;;;;10.16;80.09;102429.38;5070386;28;45500;-67
2021/12/15 08:47:17;;;;;;;;;23.25;21.00;;;;;10.16;79.82;102432.88;5076026;27;45995;-70
2021/12/15 08:49:43;;;;;;;;;22.50;18.75;;;;;10.19;80.17;102429.34;5074188;27;45430;-65
2021/12/15 08:52:09;;;;;;;;;21.25;20.50;;;;;10.20;79.86;102426.72;5076250;27;45623;-71
2021/12/15 08:54:35;;;;;;;;;25.75;21.00;;;;;10.21;80.20;102417.03;5073729;28;45712;-68
2021/12/15 08:57:01;;;;;;;;;27.25;22.25;;;;;10.30;80.21;102435.38;5077575;27;45444;-59
2021/12/15 08:59:26;;;;;;;;;23.50;20.75;;;;;10.34;79.49;102434.44;5078207;27;46089;-63
2021/12/15 09:01:53;;;;;;;;;26.00;22.75;;;;;10.36;79.83;102435.31;5077694;27;45833;-58
2021/12/15 09:04:18;;;;;;;;;27.00;25.25;;;;;10.41;79.83;102431.78;5077139;27;45390;-61
2021/12/15 09:06:45;;;;;;;;;28.75;22.25;;;;;10.46;79.80;102437.88;5077132;27;45220;-63
2021/12/15 09:09:13;;;;;;;;;36.75;28.00;;;;;10.51;79.72;102436.97;5091325;27;47374;-66
2021/12/15 09:11:40;;;;;;;;;22.00;21.25;;;;;10.57;79.18;102433.38;5074712;28;45453;-66
2021/12/15 09:14:07;;;;;;;;;22.50;19.00;;;;;10.61;78.88;102436.88;5076920;27;45429;-66
2021/12/15 09:16:35;;;;;;;;;22.50;18.50;;;;;10.65;78.57;102447.34;5076743;27;45434;-67
2021/12/15 09:19:02;;;;;;;;;20.25;18.25;;;;;10.65;78.63;102435.94;5078135;27;46461;-65
2021/12/15 09:21:30;;;;;;;;;18.75;16.75;;;;;10.69;79.03;102440.28;5078423;27;45467;-64
2021/12/15 09:23:57;;;;;;;;;21.25;17.50;;;;;10.71;78.97;102438.50;5078068;27;45398;-62
2021/12/15 09:26:23;;;;;;;;;22.00;19.25;;;;;10.79;78.82;102446.34;5077463;27;45500;-63
2021/12/15 09:28:50;;;;;;;;;29.50;25.00;;;;;10.84;79.32;102447.16;5074495;28;47064;-64
2021/12/15 09:31:16;;;;;;;;;22.75;19.75;;;;;10.88;78.71;102450.59;5075931;28;45443;-66
2021/12/15 09:33:44;;;;;;;;;26.25;20.25;;;;;10.92;78.31;102442.66;5076900;27;45345;-66
2021/12/15 09:36:13;;;;;;;;;23.50;20.75;;;;;10.93;77.65;102452.31;5075103;28;45839;-67
2021/12/15 09:38:39;;;;;;;;;15.25;15.25;;;;;10.98;77.61;102449.59;5075896;27;45610;-66
2021/12/15 09:41:07;;;;;;;;;29.50;23.00;;;;;10.96;78.21;102447.00;5075705;27;45284;-65
2021/12/15 09:43:32;;;;;;;;;23.25;15.75;;;;;10.99;77.68;102447.88;5075992;27;45176;-66
2021/12/15 09:46:10;;;;;;;;;18.50;17.25;;;;;11.02;77.98;102451.31;5077038;27;45465;-67
2021/12/15 09:57:25;;;;;;;;;18.00;15.75;;;;;11.16;76.69;102455.56;5055200;28;45411;-70
2021/12/15 10:02:40;;;;;;;;;19.50;14.75;;;;;11.16;76.79;102445.88;5080917;27;45390;-62
2021/12/15 10:18:30;;;;;;;;;22.75;18.25;;;;;11.24;77.45;102458.97;5068070;28;45957;-60
2021/12/15 10:20:57;;;;;;;;;67.00;53.75;;;;;11.29;76.53;102454.53;5062162;28;46730;-67
2021/12/15 10:23:30;;;;;;;;;22.75;22.25;;;;;11.24;76.86;102440.53;5065243;28;45423;-65
2021/12/15 10:25:57;;;;;;;;;29.25;26.75;;;;;11.33;77.04;102458.84;5061026;28;45374;-65
2021/12/15 10:28:25;;;;;;;;;30.75;23.25;;;;;11.36;77.05;102450.91;5060017;27;45442;-58
2021/12/15 10:30:50;;;;;;;;;30.50;22.50;;;;;11.40;76.82;102463.16;5074052;27;45400;-63
2021/12/15 10:33:21;;;;;;;;;24.25;16.25;;;;;11.44;76.56;102457.84;5098581;27;45205;-59
2021/12/15 10:35:50;;;;;;;;;15.00;13.25;;;;;11.48;76.53;102454.25;5095990;27;45247;-63
2021/12/15 10:38:29;;;;;;;;;29.00;22.25;;;;;11.47;75.57;102453.38;5078543;27;45572;-60
2021/12/15 10:41:12;;;;;;;;;26.00;23.00;;;;;11.45;76.31;102452.53;5061190;27;45391;-63
2021/12/15 10:43:47;;;;;;;;;29.25;27.50;;;;;11.44;76.22;102455.19;5078256;28;45276;-66
2021/12/15 10:46:24;;;;;;;;;22.75;20.00;;;;;11.46;76.45;102454.28;5077510;27;45289;-68
2021/12/15 10:48:54;;;;;;;;;20.00;18.75;;;;;11.52;75.78;102453.31;5078275;28;45304;-67
2021/12/15 10:51:28;;;;;;;;;27.00;22.75;;;;;11.57;75.84;102450.59;5070833;28;46039;-67
2021/12/15 10:53:57;;;;;;;;;28.25;24.25;;;;;11.57;75.58;102434.78;5056597;28;45394;-68
2021/12/15 10:56:29;;;;;;;;;26.00;21.00;;;;;11.60;75.89;102440.03;5057698;28;45433;-68
2021/12/15 10:59:00;;;;;;;;;27.50;23.50;;;;;11.62;76.02;102443.50;5058792;28;45609;-66
2021/12/15 11:01:37;;;;;;;;;29.50;26.50;;;;;11.67;76.21;102449.63;5085890;27;48599;-65
2021/12/15 11:04:18;;;;;;;;;22.25;20.00;;;;;11.72;75.74;102450.41;5059410;28;45439;-66
2021/12/15 11:06:44;;;;;;;;;20.50;18.00;;;;;11.74;75.15;102448.63;5058213;28;45360;-62
2021/12/15 11:09:18;;;;;;;;;29.00;26.75;;;;;11.72;75.47;102449.53;5058782;28;45447;-69
2021/12/15 11:12:04;;;;;;;;;28.50;25.25;;;;;11.69;75.32;102435.50;5058337;28;46555;-69
2021/12/15 11:14:36;;;;;;;;;31.50;29.50;;;;;11.79;75.27;102443.25;5059050;28;45477;-70
2021/12/15 11:17:12;;;;;;;;;28.25;19.50;;;;;11.81;74.98;102441.47;5061464;28;45444;-69
2021/12/15 11:19:55;;;;;;;;;24.50;19.50;;;;;11.64;75.48;102412.72;5079573;27;45471;-67
2021/12/15 11:22:40;;;;;;;;;19.75;17.75;;;;;11.86;74.86;102444.06;5062620;27;45430;-67
2021/12/15 11:25:19;;;;;;;;;19.25;16.50;;;;;11.92;75.04;102443.97;5058417;28;45192;-66
2021/12/15 11:27:48;;;;;;;;;20.25;18.75;;;;;11.93;74.36;102438.63;5057798;27;45381;-71
2021/12/15 11:30:21;;;;;;;;;26.75;21.00;;;;;11.83;74.62;102427.38;5058203;28;45330;-76
2021/12/15 11:32:49;;;;;;;;;23.25;19.50;;;;;11.88;74.63;102442.25;5058759;28;46120;-72
2021/12/15 11:35:44;;;;;;;;;28.25;20.75;;;;;11.89;74.78;102431.69;5059074;28;45185;-70
2021/12/15 11:38:14;;;;;;;;;19.50;18.50;;;;;11.87;74.90;102427.34;5058580;28;45251;-70
2021/12/15 11:40:50;;;;;;;;;15.00;12.50;;;;;11.88;74.70;102434.34;5059075;28;45532;-67
2021/12/15 11:43:33;;;;;;;;;26.50;24.00;;;;;11.90;74.79;102428.13;5057581;28;45454;-72
2021/12/15 11:46:00;;;;;;;;;39.25;27.25;;;;;11.90;75.22;102427.28;5056317;28;45430;-67
2021/12/15 11:48:28;;;;;;;;;58.50;45.00;;;;;11.94;74.78;102421.91;5062706;27;45853;-73
2021/12/15 11:50:59;;;;;;;;;25.00;21.00;;;;;11.98;74.75;102428.88;5077415;27;45505;-70
2021/12/15 11:53:44;;;;;;;;;22.00;19.00;;;;;12.01;74.54;102429.75;5075309;27;45422;-70
2021/12/15 11:56:18;;;;;;;;;23.25;19.75;;;;;11.99;74.52;102427.13;5057646;28;45292;-68
2021/12/15 11:58:44;;;;;;;;;30.75;25.75;;;;;11.98;74.37;102420.13;5057795;28;45307;-70
2021/12/15 12:01:30;;;;;;;;;21.50;19.75;;;;;11.99;74.29;102416.59;5073678;27;45439;-75
2021/12/15 12:04:16;;;;;;;;;22.75;21.50;;;;;12.03;74.24;102420.94;5059769;28;46796;-72
2021/12/15 12:06:42;;;;;;;;;23.25;17.00;;;;;12.02;74.01;102427.13;5060411;28;45352;-68
2021/12/15 12:09:07;;;;;;;;;30.00;21.00;;;;;12.02;74.49;102426.22;5076080;28;45340;-67
2021/12/15 12:11:34;;;;;;;;;22.50;19.00;;;;;12.05;74.02;102413.88;5062578;28;45291;-70
2021/12/15 12:14:00;;;;;;;;;28.00;23.50;;;;;12.10;74.07;102409.38;5059639;28;46308;-69
2021/12/15 12:16:26;;;;;;;;;33.50;26.75;;;;;12.14;74.46;102410.19;5059969;28;45229;-67
2021/12/15 12:18:52;;;;;;;;;21.00;18.50;;;;;12.19;73.89;102408.34;5059757;28;45759;-69
2021/12/15 12:21:18;;;;;;;;;23.75;20.50;;;;;12.18;73.81;102408.38;5059782;28;45510;-69
2021/12/15 12:23:46;;;;;;;;;40.25;36.00;;;;;12.17;73.74;102411.91;5060066;28;45284;-65
2021/12/15 12:26:13;;;;;;;;;32.75;30.50;;;;;12.17;73.48;102414.56;5067877;28;45276;-70
2021/12/15 12:28:42;;;;;;;;;59.50;47.25;;;;;12.17;73.57;102412.78;5091712;27;45448;-76